Station: Yongala

  Atmospheric Gas Attenuation - ITU Rec 676-11   --------------- db/100km ---------------
Date Time Temp RH % AH g/m3 Dew Point Wind Direction Speed kph Gust kph Barometer mB Rainfall Since 9am 24GHz 47GHz 76GHz 122GHz 134GHz 241GHz
11 09:00 6.4 100 7.46 6.4 9 1013.1 7 17.5 26.2 38.8 101.6 92.0 315.2
10 09:00 8.2 78 6.53 4.7 0 1013.1 0 15.4 24.1 34.1 89.2 77.4 264.2
08 09:00 1.4 100 5.34 1.4 0 1013.1 0.1 13.1 24.0 32.1 83.7 67.8 229.6
05 09:00 8.6 91 7.82 7.2 9 1013.1 0.4 18.2 26.1 39.2 102.8 94.4 323.6
04 09:00 6.5 96 7.2 5.9 6 1013.1 1 16.9 25.7 37.6 98.6 88.3 302.1
03 09:00 8 93 7.69 7 4 1013.1 0.4 17.9 26.1 38.9 102.1 93.3 319.8
02 09:00 6.8 96 7.35 6.2 4 1013.1 0 17.2 25.9 38.1 99.9 90.0 308.2
01 09:00 9.5 66 6.01 3.5 15 1013.1 0 14.2 23.0 31.5 82.3 69.5 236.6
30 09:00 5.3 80 5.55 2.2 9 1013.1 0 13.4 23.3 31.4 81.9 67.2 228.1
28 09:00 5.6 85 6.01 3.3 0 1013.1 0.1 14.4 24.0 33.1 86.5 73.0 248.5
27 09:00 6 85 6.17 3.7 0 1013.1 0.2 14.7 24.1 33.6 87.8 74.8 254.8
26 09:00 3 100 5.95 3 2 1013.1 0.1 14.4 24.6 34.0 88.8 74.7 254.0
25 09:00 5 93 6.32 3.9 0 1013.1 0.1 15.1 24.6 34.6 90.6 77.8 265.2
21 09:00 8.4 100 8.49 8.4 26 1013.1 10 19.6 27.3 42.1 110.7 104.0 357.3
19 09:00 9.5 74 6.74 5.2 22 1013.1 0 15.8 24.1 34.4 89.9 78.9 269.5
18 09:00 7 86 6.67 4.8 2 1013.1 0 15.7 24.7 35.2 92.1 80.5 274.9
17 09:00 4.5 100 6.58 4.5 0 1013.1 0.1 15.7 25.2 35.9 94.1 81.9 279.5
15 09:00 9.6 82 7.51 6.7 6 1013.1 0.1 17.4 25.3 37.4 98.1 88.9 304.8
14 09:00 7.4 93 7.4 6.3 6 1013.1 2 17.3 25.8 38.0 99.6 90.0 308.2
13 09:00 9.3 72 6.47 4.5 6 1013.1 0 15.2 23.7 33.4 87.3 75.6 257.9
12 09:00 5 84 5.71 2.6 0 1013.1 0 13.8 23.6 32.1 83.9 69.6 236.4
11 09:00 3.2 87 5.25 1.2 0 1013.1 0 12.8 23.4 31.0 80.9 65.0 220.1
10 09:00 0.5 100 5.02 0.5 0 1013.1 0.1 12.4 23.7 31.1 81.1 64.2 216.7
09 09:00 4.1 92 5.89 2.9 0 1013.1 0.1 14.2 24.2 33.2 86.9 72.8 247.6
08 09:00 4.4 94 6.14 3.5 9 1013.1 0.1 14.7 24.5 34.1 89.3 76.0 258.6
07 09:00 7.4 90 7.16 5.9 11 1013.1 0.1 16.8 25.4 37.0 97.0 86.7 296.7
06 09:00 5.9 94 6.78 5 0 1013.1 0.1 16.0 25.2 36.1 94.6 83.2 284.1
05 09:00 3 100 5.95 3 0 1013.1 0 14.4 24.6 34.0 88.8 74.7 254.0
03 09:00 9.1 99 8.79 8.9 15 1013.1 0.4 20.2 27.6 43.1 113.1 107.3 368.9
02 09:00 8.4 96 8.15 7.8 9 1013.1 1 18.9 26.7 40.7 106.8 99.2 340.5
31 09:00 9.7 91 8.39 8.3 15 1013.1 0.2 19.3 26.8 41.0 107.7 100.8 346.5
30 09:00 8 78 6.45 4.5 7 1013.1 0 15.2 24.0 33.9 88.6 76.6 261.2
29 09:00 5 93 6.32 3.9 0 1013.1 0 15.1 24.6 34.6 90.6 77.8 265.2
26 09:00 7.2 78 6.13 3.6 9 1013.1 0 14.6 23.7 32.9 86.0 73.1 249.1
25 09:00 4.5 91 5.99 3.1 15 1013.1 0 14.4 24.2 33.5 87.5 73.8 251.1
24 09:00 8.8 81 7.05 5.8 22 1013.1 0.8 16.5 24.8 35.9 94.1 83.7 286.3
22 09:00 6.5 86 6.45 4.3 4 1013.1 0.1 15.3 24.4 34.5 90.3 78.1 266.3
21 09:00 6.9 89 6.85 5.2 11 1013.1 2 16.1 25.0 36.0 94.2 83.0 283.8
20 09:00 8 89 7.36 6.3 9 1013.1 0 17.2 25.5 37.6 98.4 88.8 304.0
19 09:00 12.5 73 8.03 7.8 0 1013.1 0 18.4 25.3 38.1 100.0 92.5 317.6
18 09:00 9.4 88 7.96 7.6 0 1013.1 0 18.4 26.1 39.4 103.3 95.3 327.0
17 09:00 11.9 74 7.84 7.5 15 1013.1 0 18.1 25.2 37.7 98.8 90.7 311.2
16 09:00 5.6 82 5.8 2.8 0 1013.1 0 13.9 23.6 32.3 84.2 70.3 238.8
12 09:00 6.2 89 6.55 4.6 0 1013.1 0.1 15.5 24.7 35.1 91.7 79.7 272.0
11 09:00 7 100 7.75 7 0 1013.1 0.2 18.1 26.5 39.7 104.1 95.4 326.9
10 09:00 8.7 96 8.31 8.1 0 1013.1 2 19.2 26.9 41.2 108.2 101.0 347.1
06 09:00 8 86 7.11 5.9 11 1013.1 0 16.7 25.1 36.5 95.7 85.4 292.1
04 09:00 8 91 7.53 6.7 9 1013.1 0 17.6 25.8 38.3 100.3 91.1 312.1
03 09:00 8.4 87 7.38 6.3 11 1013.1 2 17.2 25.4 37.5 98.2 88.6 303.4
02 09:00 11.1 99 9.97 10.9 19 1013.1 12 22.7 29.0 47.0 123.7 121.2 417.7
01 09:00 8.5 97 8.28 8.1 4 1013.1 3 19.2 26.9 41.2 108.1 100.9 346.5
26 09:00 15.4 90 11.82 13.8 11 1013.1 13 26.4 30.8 52.4 138.1 140.4 485.6
25 09:00 16.5 72 10.11 11.5 0 1013.1 0.1 22.7 27.5 44.5 117.0 114.8 396.2
24 09:00 15.9 81 10.97 12.7 0 1013.1 5 24.5 29.2 48.4 127.4 127.5 440.5
22 09:00 17 68 9.84 11.1 2 1013.1 0 22.1 26.9 43.1 113.3 110.5 381.1
21 09:00 15.6 61 8.11 8.1 9 1013.1 0 18.5 24.6 37.0 97.0 89.9 308.9
20 09:00 16.1 81 11.1 12.8 9 1013.1 0 24.8 29.3 48.8 128.6 129.0 445.7
19 09:00 12.4 82 8.96 9.5 0 1013.1 0.1 20.4 26.9 42.0 110.3 105.1 361.6
18 09:00 12.9 72 8.12 8 0 1013.1 0 18.6 25.4 38.3 100.5 93.2 320.1
17 09:00 13 66 7.49 6.8 15 1013.1 0 17.3 24.3 35.8 93.7 84.9 291.1
16 09:00 16.7 87 12.36 14.5 15 1013.1 0 27.5 31.3 53.9 142.1 145.8 504.4
15 09:00 19.4 44 7.34 6.9 19 1013.1 0 16.7 22.5 32.5 85.1 76.5 262.6
14 09:00 16.9 48 6.9 6 0 1013.1 0 15.8 22.4 31.9 83.5 73.7 252.3
13 09:00 13.7 55 6.51 5 4 1013.1 0 15.1 22.7 31.8 83.0 71.9 245.7
12 09:00 10 80 7.52 6.7 9 1013.1 0 17.5 25.2 37.3 97.7 88.6 303.8
11 09:00 14.4 78 9.64 10.7 22 1013.1 0 21.8 27.4 43.7 114.9 111.5 384.5
10 09:00 15.2 72 9.35 10.2 0 1013.1 0 21.1 26.7 42.1 110.6 106.5 367.0
07 09:00 13 89 10.09 11.2 6 1013.1 0 22.8 28.6 46.4 122.1 119.9 413.4
06 09:00 13.5 94 11 12.6 0 1013.1 0.4 24.8 30.0 50.1 131.8 132.0 455.9
05 09:00 12 94 10.02 11.1 19 1013.1 4 22.7 28.8 46.7 122.9 120.4 415.3
04 09:00 9.7 100 9.22 9.7 11 1013.1 5 21.1 28.2 44.6 117.2 112.5 387.4
03 09:00 16.5 70 9.83 11.1 0 1013.1 0 22.1 27.1 43.3 113.9 111.0 383.1
02 09:00 11 100 10.01 11 0 1013.1 0.1 22.8 29.1 47.3 124.4 121.9 420.3
01 09:00 14.4 83 10.26 11.5 15 1013.1 0.2 23.1 28.5 46.3 121.8 120.0 414.2
31 09:00 12.4 87 9.51 10.3 0 1013.1 0 21.6 27.8 44.3 116.4 112.6 388.1
30 09:00 9.4 100 9.05 9.4 0 1013.1 0.2 20.8 28.0 44.0 115.7 110.5 380.4
29 09:00 20.3 51 8.97 9.8 0 1013.1 0 20.1 24.6 38.1 99.9 95.1 327.7
28 09:00 16.6 51 7.2 6.6 0 1013.1 0 16.5 23.0 33.2 86.7 77.6 265.9
27 09:00 11 76 7.61 6.9 2 1013.1 0 17.6 25.1 37.2 97.4 88.7 304.1
26 09:00 10.9 76 7.56 6.8 19 1013.1 0 17.5 25.0 37.0 97.0 88.1 302.1
23 09:00 10.6 73 7.13 6 26 1013.1 0 16.6 24.4 35.4 92.8 82.8 283.5
22 09:00 14.4 83 10.26 11.5 19 1013.1 0 23.1 28.5 46.3 121.8 120.0 414.2
21 09:00 12.4 89 9.73 10.7 19 1013.1 0 22.1 28.2 45.2 118.9 115.7 398.9
20 09:00 15 89 11.41 13.3 11 1013.1 0 25.5 30.2 50.9 134.0 135.3 467.5
16 09:00 14.8 61 7.73 7.4 9 1013.1 0 17.7 24.2 35.9 94.1 86.0 295.1
15 09:00 11.2 70 7.1 6 19 1013.1 0 16.5 24.2 35.1 91.8 81.8 280.0
13 09:00 22 54 10.48 12.4 2 1013.1 0 23.2 26.5 42.9 112.9 111.6 385.7
11 09:00 20.5 61 10.85 12.8 4 1013.1 0 24.0 27.5 45.2 118.9 118.5 409.8
10 09:00 16.4 59 8.23 8.4 0 1013.1 0 18.7 24.6 37.1 97.3 90.5 311.1
09 09:00 15.5 71 9.38 10.4 19 1013.1 0 21.2 26.7 42.1 110.5 106.5 367.0
07 09:00 14.7 71 8.94 9.6 22 1013.1 0 20.3 26.2 40.7 106.9 101.7 350.2
06 09:00 14 78 9.41 10.3 4 1013.1 0 21.3 27.2 43.0 113.0 109.0 375.5
01 09:00 21.5 51 9.62 10.9 9 1013.1 0 21.4 25.3 39.9 104.9 101.6 350.5
28 09:00 14.5 73 9.08 9.8 7 1013.1 0 20.6 26.5 41.4 108.6 103.8 357.6
24 09:00 22.4 78 15.49 18.4 9 1013.1 0 33.7 34.7 63.4 167.6 179.0 621.0
23 09:00 18.7 53 8.48 9.1 4 1013.1 0 19.1 24.3 37.0 97.0 90.9 313.0
21 09:00 13 72 8.17 8.1 30 1013.1 0 18.7 25.4 38.5 100.9 93.7 322.0
20 09:00 12.2 76 8.2 8.1 26 1013.1 0 18.8 25.7 39.0 102.2 95.1 326.7
19 09:00 12.6 70 7.74 7.4 22 1013.1 0 17.8 24.8 36.9 96.8 88.6 303.9
18 09:00 16.6 84 11.87 14 22 1013.1 0 26.4 30.5 51.8 136.5 138.9 480.6

Last Refresh: 13-Jul-2020 07:10:46

Most of the information presented on this site is sourced from the Bureau of Meteorology.  Copyright in all material sourced from the Bureau of Meteorology resides with the Commonwealth of Australia.